« Back
NWS Peachtree City, Ga » Text Product » CSG Terminal Aerodrome Forecast


Printer-friendly Version
Current Version              Previous Versions:   1  2  3  4  5  6  7  8  9  

Terminal Aerodrome Forecast

598
FTUS42 KFFC 231121
TAFCSG
TAF
KCSG 231121Z 2312/2412 35005KT P6SM SKC
     FM231500 36010G15KT P6SM FEW050
     FM232300 33005KT P6SM SKC=



USA.gov is the U.S. government's official web portal to all federal, state and local government web resources and services.